sensor_id;sensor_type;location;lat;lon;timestamp;P1;durP1;ratioP1;P2;durP2;ratioP2
8675;SDS011;4375;52.486;13.424;2023-05-02T00:01:39;20.60;;;6.03;;
8675;SDS011;4375;52.486;13.424;2023-05-02T00:04:05;20.97;;;5.53;;
8675;SDS011;4375;52.486;13.424;2023-05-02T00:06:31;20.47;;;6.67;;
8675;SDS011;4375;52.486;13.424;2023-05-02T00:08:57;19.33;;;5.07;;
8675;SDS011;4375;52.486;13.424;2023-05-02T00:11:22;22.47;;;6.63;;
8675;SDS011;4375;52.486;13.424;2023-05-02T00:13:48;21.47;;;5.70;;
8675;SDS011;4375;52.486;13.424;2023-05-02T00:16:13;20.80;;;5.87;;
8675;SDS011;4375;52.486;13.424;2023-05-02T00:18:39;19.17;;;5.37;;
8675;SDS011;4375;52.486;13.424;2023-05-02T00:21:05;20.63;;;5.40;;
8675;SDS011;4375;52.486;13.424;2023-05-02T00:23:31;23.40;;;5.67;;
8675;SDS011;4375;52.486;13.424;2023-05-02T00:25:57;19.37;;;5.30;;
8675;SDS011;4375;52.486;13.424;2023-05-02T00:28:22;18.67;;;5.20;;
8675;SDS011;4375;52.486;13.424;2023-05-02T00:30:50;19.70;;;5.87;;
8675;SDS011;4375;52.486;13.424;2023-05-02T00:33:16;18.90;;;4.97;;
8675;SDS011;4375;52.486;13.424;2023-05-02T00:35:41;18.23;;;4.67;;
8675;SDS011;4375;52.486;13.424;2023-05-02T00:38:07;19.80;;;5.63;;
8675;SDS011;4375;52.486;13.424;2023-05-02T00:43:29;19.43;;;6.00;;
8675;SDS011;4375;52.486;13.424;2023-05-02T00:45:55;20.40;;;5.37;;
8675;SDS011;4375;52.486;13.424;2023-05-02T00:48:21;21.20;;;5.80;;
8675;SDS011;4375;52.486;13.424;2023-05-02T00:50:47;20.70;;;6.50;;
8675;SDS011;4375;52.486;13.424;2023-05-02T00:53:13;20.50;;;5.63;;
8675;SDS011;4375;52.486;13.424;2023-05-02T00:55:39;20.00;;;5.70;;
8675;SDS011;4375;52.486;13.424;2023-05-02T00:58:06;18.40;;;5.90;;
8675;SDS011;4375;52.486;13.424;2023-05-02T01:00:39;21.97;;;5.10;;
8675;SDS011;4375;52.486;13.424;2023-05-02T01:14:12;18.97;;;5.83;;
8675;SDS011;4375;52.486;13.424;2023-05-02T01:16:39;25.23;;;6.33;;
8675;SDS011;4375;52.486;13.424;2023-05-02T01:19:08;18.60;;;5.83;;
8675;SDS011;4375;52.486;13.424;2023-05-02T01:21:37;22.47;;;5.03;;
8675;SDS011;4375;52.486;13.424;2023-05-02T01:24:06;18.80;;;5.60;;
8675;SDS011;4375;52.486;13.424;2023-05-02T01:29:30;21.10;;;6.07;;
8675;SDS011;4375;52.486;13.424;2023-05-02T01:31:57;22.03;;;6.10;;
8675;SDS011;4375;52.486;13.424;2023-05-02T01:34:24;21.47;;;6.00;;
8675;SDS011;4375;52.486;13.424;2023-05-02T01:36:52;18.40;;;6.10;;
8675;SDS011;4375;52.486;13.424;2023-05-02T01:39:21;19.93;;;5.77;;
8675;SDS011;4375;52.486;13.424;2023-05-02T01:41:49;19.07;;;5.97;;
8675;SDS011;4375;52.486;13.424;2023-05-02T01:44:19;20.00;;;5.40;;
8675;SDS011;4375;52.486;13.424;2023-05-02T01:46:47;18.93;;;5.87;;
8675;SDS011;4375;52.486;13.424;2023-05-02T01:49:15;18.70;;;5.33;;
8675;SDS011;4375;52.486;13.424;2023-05-02T01:51:45;18.50;;;5.70;;
8675;SDS011;4375;52.486;13.424;2023-05-02T01:54:12;21.53;;;5.80;;
8675;SDS011;4375;52.486;13.424;2023-05-02T01:56:40;19.00;;;5.97;;
8675;SDS011;4375;52.486;13.424;2023-05-02T01:59:10;22.30;;;6.30;;
8675;SDS011;4375;52.486;13.424;2023-05-02T02:01:37;19.83;;;5.30;;
8675;SDS011;4375;52.486;13.424;2023-05-02T02:04:05;21.07;;;5.90;;
8675;SDS011;4375;52.486;13.424;2023-05-02T02:06:35;19.67;;;6.20;;
8675;SDS011;4375;52.486;13.424;2023-05-02T02:09:01;21.03;;;5.60;;
8675;SDS011;4375;52.486;13.424;2023-05-02T02:11:34;21.37;;;6.03;;
8675;SDS011;4375;52.486;13.424;2023-05-02T02:14:13;19.03;;;5.60;;
8675;SDS011;4375;52.486;13.424;2023-05-02T02:16:43;20.77;;;5.67;;
8675;SDS011;4375;52.486;13.424;2023-05-02T02:19:09;20.47;;;6.40;;
8675;SDS011;4375;52.486;13.424;2023-05-02T02:21:38;20.60;;;6.27;;
8675;SDS011;4375;52.486;13.424;2023-05-02T02:24:06;19.67;;;6.40;;
8675;SDS011;4375;52.486;13.424;2023-05-02T02:26:32;21.90;;;5.53;;
8675;SDS011;4375;52.486;13.424;2023-05-02T02:28:59;21.00;;;5.90;;
8675;SDS011;4375;52.486;13.424;2023-05-02T02:31:34;18.20;;;5.50;;
8675;SDS011;4375;52.486;13.424;2023-05-02T02:34:03;24.13;;;6.47;;
8675;SDS011;4375;52.486;13.424;2023-05-02T02:36:44;24.13;;;5.57;;
8675;SDS011;4375;52.486;13.424;2023-05-02T02:42:10;19.50;;;5.40;;
8675;SDS011;4375;52.486;13.424;2023-05-02T02:47:49;22.03;;;5.80;;
8675;SDS011;4375;52.486;13.424;2023-05-02T02:53:45;20.43;;;5.90;;
8675;SDS011;4375;52.486;13.424;2023-05-02T02:56:12;19.70;;;5.83;;
8675;SDS011;4375;52.486;13.424;2023-05-02T02:58:47;18.17;;;4.73;;
8675;SDS011;4375;52.486;13.424;2023-05-02T03:01:19;18.20;;;5.10;;
8675;SDS011;4375;52.486;13.424;2023-05-02T03:03:46;18.10;;;5.13;;
8675;SDS011;4375;52.486;13.424;2023-05-02T03:06:14;20.00;;;4.83;;
8675;SDS011;4375;52.486;13.424;2023-05-02T03:08:42;26.10;;;5.80;;
8675;SDS011;4375;52.486;13.424;2023-05-02T03:11:09;18.70;;;5.63;;
8675;SDS011;4375;52.486;13.424;2023-05-02T03:13:34;20.77;;;4.93;;
8675;SDS011;4375;52.486;13.424;2023-05-02T03:18:29;21.03;;;5.10;;
8675;SDS011;4375;52.486;13.424;2023-05-02T03:20:55;24.47;;;4.73;;
8675;SDS011;4375;52.486;13.424;2023-05-02T03:23:21;22.00;;;6.37;;
8675;SDS011;4375;52.486;13.424;2023-05-02T03:25:46;17.47;;;4.83;;
8675;SDS011;4375;52.486;13.424;2023-05-02T03:28:12;17.70;;;4.53;;
8675;SDS011;4375;52.486;13.424;2023-05-02T03:30:38;21.23;;;4.53;;
8675;SDS011;4375;52.486;13.424;2023-05-02T03:33:05;17.93;;;4.87;;
8675;SDS011;4375;52.486;13.424;2023-05-02T03:35:32;19.80;;;4.83;;
8675;SDS011;4375;52.486;13.424;2023-05-02T03:37:58;20.47;;;5.17;;
8675;SDS011;4375;52.486;13.424;2023-05-02T03:40:24;20.07;;;4.30;;
8675;SDS011;4375;52.486;13.424;2023-05-02T03:42:51;16.57;;;4.60;;
8675;SDS011;4375;52.486;13.424;2023-05-02T03:45:16;16.30;;;4.30;;
8675;SDS011;4375;52.486;13.424;2023-05-02T03:47:42;19.73;;;4.40;;
8675;SDS011;4375;52.486;13.424;2023-05-02T03:50:08;17.20;;;4.33;;
8675;SDS011;4375;52.486;13.424;2023-05-02T03:52:34;20.40;;;4.70;;
8675;SDS011;4375;52.486;13.424;2023-05-02T03:55:00;17.93;;;4.67;;
8675;SDS011;4375;52.486;13.424;2023-05-02T03:57:28;17.63;;;3.80;;
8675;SDS011;4375;52.486;13.424;2023-05-02T03:59:54;19.87;;;5.07;;
8675;SDS011;4375;52.486;13.424;2023-05-02T04:02:20;19.00;;;4.90;;
8675;SDS011;4375;52.486;13.424;2023-05-02T04:04:45;17.60;;;5.53;;
8675;SDS011;4375;52.486;13.424;2023-05-02T04:07:11;21.00;;;5.60;;
8675;SDS011;4375;52.486;13.424;2023-05-02T04:09:42;17.30;;;4.60;;
8675;SDS011;4375;52.486;13.424;2023-05-02T04:12:08;20.53;;;5.00;;
8675;SDS011;4375;52.486;13.424;2023-05-02T04:14:33;24.50;;;5.60;;
8675;SDS011;4375;52.486;13.424;2023-05-02T04:16:59;19.83;;;5.83;;
8675;SDS011;4375;52.486;13.424;2023-05-02T04:19:25;21.20;;;5.60;;
8675;SDS011;4375;52.486;13.424;2023-05-02T04:21:51;20.17;;;5.00;;
8675;SDS011;4375;52.486;13.424;2023-05-02T04:24:17;24.83;;;4.90;;
8675;SDS011;4375;52.486;13.424;2023-05-02T04:26:42;18.20;;;5.23;;
8675;SDS011;4375;52.486;13.424;2023-05-02T04:29:08;20.03;;;5.23;;
8675;SDS011;4375;52.486;13.424;2023-05-02T04:31:34;19.87;;;4.47;;
8675;SDS011;4375;52.486;13.424;2023-05-02T04:34:00;19.20;;;4.80;;
8675;SDS011;4375;52.486;13.424;2023-05-02T04:36:26;16.60;;;4.10;;
8675;SDS011;4375;52.486;13.424;2023-05-02T04:38:52;17.40;;;4.50;;
8675;SDS011;4375;52.486;13.424;2023-05-02T04:41:18;18.40;;;4.27;;
8675;SDS011;4375;52.486;13.424;2023-05-02T04:43:44;23.40;;;4.50;;
8675;SDS011;4375;52.486;13.424;2023-05-02T04:46:09;18.63;;;4.60;;
8675;SDS011;4375;52.486;13.424;2023-05-02T04:48:35;17.20;;;4.10;;
8675;SDS011;4375;52.486;13.424;2023-05-02T04:51:01;16.90;;;4.30;;
8675;SDS011;4375;52.486;13.424;2023-05-02T04:53:26;19.70;;;4.43;;
8675;SDS011;4375;52.486;13.424;2023-05-02T04:55:52;23.43;;;4.30;;
8675;SDS011;4375;52.486;13.424;2023-05-02T04:58:18;17.73;;;4.20;;
8675;SDS011;4375;52.486;13.424;2023-05-02T05:00:44;18.00;;;5.20;;
8675;SDS011;4375;52.486;13.424;2023-05-02T05:03:09;20.43;;;3.90;;
8675;SDS011;4375;52.486;13.424;2023-05-02T05:05:35;24.13;;;5.00;;
8675;SDS011;4375;52.486;13.424;2023-05-02T05:08:01;19.80;;;4.27;;
8675;SDS011;4375;52.486;13.424;2023-05-02T05:10:26;19.80;;;4.17;;
8675;SDS011;4375;52.486;13.424;2023-05-02T05:12:52;17.90;;;3.80;;
8675;SDS011;4375;52.486;13.424;2023-05-02T05:15:17;16.60;;;3.50;;
8675;SDS011;4375;52.486;13.424;2023-05-02T05:17:46;21.07;;;4.80;;
8675;SDS011;4375;52.486;13.424;2023-05-02T05:20:12;21.33;;;4.03;;
8675;SDS011;4375;52.486;13.424;2023-05-02T05:22:38;16.83;;;3.87;;
8675;SDS011;4375;52.486;13.424;2023-05-02T05:25:05;21.50;;;4.30;;
8675;SDS011;4375;52.486;13.424;2023-05-02T05:27:32;16.67;;;4.00;;
8675;SDS011;4375;52.486;13.424;2023-05-02T05:29:58;19.57;;;4.67;;
8675;SDS011;4375;52.486;13.424;2023-05-02T05:32:24;21.90;;;4.30;;
8675;SDS011;4375;52.486;13.424;2023-05-02T05:34:51;20.93;;;3.83;;
8675;SDS011;4375;52.486;13.424;2023-05-02T05:37:17;19.10;;;4.53;;
8675;SDS011;4375;52.486;13.424;2023-05-02T05:39:43;18.47;;;4.13;;
8675;SDS011;4375;52.486;13.424;2023-05-02T05:42:09;19.43;;;4.20;;
8675;SDS011;4375;52.486;13.424;2023-05-02T05:44:36;19.43;;;4.50;;
8675;SDS011;4375;52.486;13.424;2023-05-02T05:47:02;22.23;;;5.30;;
8675;SDS011;4375;52.486;13.424;2023-05-02T05:49:28;21.57;;;5.03;;
8675;SDS011;4375;52.486;13.424;2023-05-02T05:51:54;20.10;;;4.70;;
8675;SDS011;4375;52.486;13.424;2023-05-02T05:54:20;18.97;;;4.60;;
8675;SDS011;4375;52.486;13.424;2023-05-02T05:56:45;20.33;;;5.27;;
8675;SDS011;4375;52.486;13.424;2023-05-02T05:59:11;20.27;;;4.80;;
8675;SDS011;4375;52.486;13.424;2023-05-02T06:01:37;17.73;;;5.00;;
8675;SDS011;4375;52.486;13.424;2023-05-02T06:04:03;20.90;;;5.10;;
8675;SDS011;4375;52.486;13.424;2023-05-02T06:06:29;21.17;;;5.57;;
8675;SDS011;4375;52.486;13.424;2023-05-02T06:08:58;18.20;;;5.60;;
8675;SDS011;4375;52.486;13.424;2023-05-02T06:11:24;19.60;;;4.87;;
8675;SDS011;4375;52.486;13.424;2023-05-02T06:13:50;19.40;;;5.60;;
8675;SDS011;4375;52.486;13.424;2023-05-02T06:16:16;21.10;;;5.67;;
8675;SDS011;4375;52.486;13.424;2023-05-02T06:18:45;25.80;;;5.80;;
8675;SDS011;4375;52.486;13.424;2023-05-02T06:21:11;23.40;;;6.00;;
8675;SDS011;4375;52.486;13.424;2023-05-02T06:23:37;19.80;;;5.47;;
8675;SDS011;4375;52.486;13.424;2023-05-02T06:26:03;20.87;;;5.73;;
8675;SDS011;4375;52.486;13.424;2023-05-02T06:28:30;19.40;;;5.67;;
8675;SDS011;4375;52.486;13.424;2023-05-02T06:30:56;23.60;;;5.57;;
8675;SDS011;4375;52.486;13.424;2023-05-02T06:33:23;21.30;;;5.83;;
8675;SDS011;4375;52.486;13.424;2023-05-02T06:35:52;21.30;;;6.87;;
8675;SDS011;4375;52.486;13.424;2023-05-02T06:38:18;22.43;;;6.90;;
8675;SDS011;4375;52.486;13.424;2023-05-02T06:40:44;20.80;;;6.60;;
8675;SDS011;4375;52.486;13.424;2023-05-02T06:43:10;21.47;;;6.37;;
8675;SDS011;4375;52.486;13.424;2023-05-02T06:45:36;20.67;;;6.20;;
8675;SDS011;4375;52.486;13.424;2023-05-02T06:48:02;23.77;;;7.17;;
8675;SDS011;4375;52.486;13.424;2023-05-02T06:50:28;21.63;;;6.57;;
8675;SDS011;4375;52.486;13.424;2023-05-02T06:52:54;22.53;;;7.53;;
8675;SDS011;4375;52.486;13.424;2023-05-02T06:55:20;25.37;;;7.97;;
8675;SDS011;4375;52.486;13.424;2023-05-02T06:57:47;26.30;;;8.17;;
8675;SDS011;4375;52.486;13.424;2023-05-02T07:00:14;22.03;;;7.60;;
8675;SDS011;4375;52.486;13.424;2023-05-02T07:02:40;24.87;;;7.77;;
8675;SDS011;4375;52.486;13.424;2023-05-02T07:05:06;25.07;;;8.23;;
8675;SDS011;4375;52.486;13.424;2023-05-02T07:07:32;21.40;;;7.00;;
8675;SDS011;4375;52.486;13.424;2023-05-02T07:09:58;22.70;;;7.30;;
8675;SDS011;4375;52.486;13.424;2023-05-02T07:12:24;25.33;;;7.60;;
8675;SDS011;4375;52.486;13.424;2023-05-02T07:14:50;23.43;;;7.17;;
8675;SDS011;4375;52.486;13.424;2023-05-02T07:17:16;21.77;;;6.83;;
8675;SDS011;4375;52.486;13.424;2023-05-02T07:19:42;21.43;;;6.90;;
8675;SDS011;4375;52.486;13.424;2023-05-02T07:22:08;20.13;;;5.90;;
8675;SDS011;4375;52.486;13.424;2023-05-02T07:24:33;27.07;;;7.33;;
8675;SDS011;4375;52.486;13.424;2023-05-02T07:26:59;21.50;;;6.33;;
8675;SDS011;4375;52.486;13.424;2023-05-02T07:29:25;22.00;;;6.63;;
8675;SDS011;4375;52.486;13.424;2023-05-02T07:31:51;19.37;;;5.80;;
8675;SDS011;4375;52.486;13.424;2023-05-02T07:34:16;20.60;;;6.37;;
8675;SDS011;4375;52.486;13.424;2023-05-02T07:36:42;19.43;;;5.80;;
8675;SDS011;4375;52.486;13.424;2023-05-02T07:39:08;20.27;;;5.77;;
8675;SDS011;4375;52.486;13.424;2023-05-02T07:41:34;23.37;;;6.20;;
8675;SDS011;4375;52.486;13.424;2023-05-02T07:43:59;19.10;;;5.90;;
8675;SDS011;4375;52.486;13.424;2023-05-02T07:46:25;18.57;;;5.47;;
8675;SDS011;4375;52.486;13.424;2023-05-02T07:48:50;21.80;;;5.83;;
8675;SDS011;4375;52.486;13.424;2023-05-02T07:51:18;21.77;;;6.30;;
8675;SDS011;4375;52.486;13.424;2023-05-02T07:53:45;19.20;;;5.60;;
8675;SDS011;4375;52.486;13.424;2023-05-02T07:56:11;18.83;;;5.20;;
8675;SDS011;4375;52.486;13.424;2023-05-02T07:58:36;19.60;;;5.87;;
8675;SDS011;4375;52.486;13.424;2023-05-02T08:01:02;20.50;;;5.53;;
8675;SDS011;4375;52.486;13.424;2023-05-02T08:03:29;19.00;;;5.60;;
8675;SDS011;4375;52.486;13.424;2023-05-02T08:05:55;19.20;;;5.20;;
8675;SDS011;4375;52.486;13.424;2023-05-02T08:08:21;23.70;;;6.73;;
8675;SDS011;4375;52.486;13.424;2023-05-02T08:10:47;19.70;;;5.93;;
8675;SDS011;4375;52.486;13.424;2023-05-02T08:13:15;20.90;;;5.70;;
8675;SDS011;4375;52.486;13.424;2023-05-02T08:15:41;20.33;;;5.60;;
8675;SDS011;4375;52.486;13.424;2023-05-02T08:18:06;23.93;;;5.80;;
8675;SDS011;4375;52.486;13.424;2023-05-02T08:20:32;22.90;;;5.47;;
8675;SDS011;4375;52.486;13.424;2023-05-02T08:22:58;19.70;;;5.60;;
8675;SDS011;4375;52.486;13.424;2023-05-02T08:25:23;20.60;;;6.00;;
8675;SDS011;4375;52.486;13.424;2023-05-02T08:27:49;18.70;;;5.33;;
8675;SDS011;4375;52.486;13.424;2023-05-02T08:30:14;22.10;;;5.73;;
8675;SDS011;4375;52.486;13.424;2023-05-02T08:32:40;19.37;;;5.40;;
8675;SDS011;4375;52.486;13.424;2023-05-02T08:35:06;18.67;;;5.00;;
8675;SDS011;4375;52.486;13.424;2023-05-02T08:37:32;18.57;;;5.27;;
8675;SDS011;4375;52.486;13.424;2023-05-02T08:39:58;19.33;;;4.63;;
8675;SDS011;4375;52.486;13.424;2023-05-02T08:42:24;18.80;;;5.50;;
8675;SDS011;4375;52.486;13.424;2023-05-02T08:44:51;18.67;;;5.20;;
8675;SDS011;4375;52.486;13.424;2023-05-02T08:47:17;20.20;;;6.30;;
8675;SDS011;4375;52.486;13.424;2023-05-02T08:49:43;19.67;;;4.97;;
8675;SDS011;4375;52.486;13.424;2023-05-02T08:52:11;21.27;;;5.90;;
8675;SDS011;4375;52.486;13.424;2023-05-02T08:54:39;19.50;;;5.33;;
8675;SDS011;4375;52.486;13.424;2023-05-02T08:57:05;20.17;;;4.80;;
8675;SDS011;4375;52.486;13.424;2023-05-02T08:59:31;20.67;;;5.20;;
8675;SDS011;4375;52.486;13.424;2023-05-02T09:02:04;18.93;;;5.20;;
8675;SDS011;4375;52.486;13.424;2023-05-02T09:04:42;20.77;;;4.90;;
8675;SDS011;4375;52.486;13.424;2023-05-02T09:07:09;19.47;;;4.60;;
8675;SDS011;4375;52.486;13.424;2023-05-02T09:09:35;19.87;;;4.53;;
8675;SDS011;4375;52.486;13.424;2023-05-02T09:12:01;26.10;;;6.80;;
8675;SDS011;4375;52.486;13.424;2023-05-02T09:14:28;18.13;;;4.33;;
8675;SDS011;4375;52.486;13.424;2023-05-02T09:16:57;17.30;;;3.70;;
8675;SDS011;4375;52.486;13.424;2023-05-02T09:19:26;20.43;;;4.23;;
8675;SDS011;4375;52.486;13.424;2023-05-02T09:21:52;17.40;;;3.90;;
8675;SDS011;4375;52.486;13.424;2023-05-02T09:24:25;16.43;;;3.50;;
8675;SDS011;4375;52.486;13.424;2023-05-02T09:26:57;16.60;;;3.80;;
8675;SDS011;4375;52.486;13.424;2023-05-02T09:29:28;16.70;;;3.80;;
8675;SDS011;4375;52.486;13.424;2023-05-02T09:31:59;18.80;;;3.50;;
8675;SDS011;4375;52.486;13.424;2023-05-02T09:34:26;20.63;;;3.80;;
8675;SDS011;4375;52.486;13.424;2023-05-02T09:36:52;18.40;;;4.37;;
8675;SDS011;4375;52.486;13.424;2023-05-02T09:39:22;15.43;;;3.00;;
8675;SDS011;4375;52.486;13.424;2023-05-02T09:41:55;15.70;;;3.33;;
8675;SDS011;4375;52.486;13.424;2023-05-02T09:44:25;15.27;;;3.10;;
8675;SDS011;4375;52.486;13.424;2023-05-02T09:47:00;16.23;;;2.97;;
8675;SDS011;4375;52.486;13.424;2023-05-02T09:49:39;18.07;;;3.50;;
8675;SDS011;4375;52.486;13.424;2023-05-02T09:52:18;17.93;;;4.30;;
8675;SDS011;4375;52.486;13.424;2023-05-02T09:54:45;16.97;;;3.80;;
8675;SDS011;4375;52.486;13.424;2023-05-02T09:57:14;16.83;;;3.63;;
8675;SDS011;4375;52.486;13.424;2023-05-02T09:59:40;18.70;;;3.30;;
8675;SDS011;4375;52.486;13.424;2023-05-02T10:02:17;17.77;;;4.20;;
8675;SDS011;4375;52.486;13.424;2023-05-02T10:04:43;15.90;;;3.47;;
8675;SDS011;4375;52.486;13.424;2023-05-02T10:07:11;17.50;;;3.77;;
8675;SDS011;4375;52.486;13.424;2023-05-02T10:09:40;18.90;;;3.67;;
8675;SDS011;4375;52.486;13.424;2023-05-02T10:12:08;16.47;;;3.20;;
8675;SDS011;4375;52.486;13.424;2023-05-02T10:14:38;20.37;;;3.37;;
8675;SDS011;4375;52.486;13.424;2023-05-02T10:17:11;18.00;;;3.87;;
8675;SDS011;4375;52.486;13.424;2023-05-02T10:19:54;18.63;;;3.50;;
8675;SDS011;4375;52.486;13.424;2023-05-02T10:22:24;17.57;;;4.90;;
8675;SDS011;4375;52.486;13.424;2023-05-02T10:24:50;16.50;;;3.97;;
8675;SDS011;4375;52.486;13.424;2023-05-02T10:27:17;17.67;;;4.07;;
8675;SDS011;4375;52.486;13.424;2023-05-02T10:29:43;19.30;;;3.83;;
8675;SDS011;4375;52.486;13.424;2023-05-02T10:32:10;17.23;;;4.23;;
8675;SDS011;4375;52.486;13.424;2023-05-02T10:34:36;19.17;;;4.30;;
8675;SDS011;4375;52.486;13.424;2023-05-02T10:37:04;16.40;;;3.60;;
8675;SDS011;4375;52.486;13.424;2023-05-02T10:39:30;16.73;;;3.80;;
8675;SDS011;4375;52.486;13.424;2023-05-02T10:41:57;18.17;;;4.03;;
8675;SDS011;4375;52.486;13.424;2023-05-02T10:44:39;19.83;;;4.30;;
8675;SDS011;4375;52.486;13.424;2023-05-02T10:49:51;16.20;;;3.20;;
8675;SDS011;4375;52.486;13.424;2023-05-02T10:52:25;16.67;;;3.33;;
8675;SDS011;4375;52.486;13.424;2023-05-02T11:00:31;17.13;;;3.47;;
8675;SDS011;4375;52.486;13.424;2023-05-02T11:03:00;17.50;;;2.87;;
8675;SDS011;4375;52.486;13.424;2023-05-02T11:05:26;16.50;;;4.00;;
8675;SDS011;4375;52.486;13.424;2023-05-02T11:10:39;17.40;;;3.43;;
8675;SDS011;4375;52.486;13.424;2023-05-02T11:13:05;18.67;;;4.00;;
8675;SDS011;4375;52.486;13.424;2023-05-02T11:20:40;18.23;;;4.53;;
8675;SDS011;4375;52.486;13.424;2023-05-02T11:25:38;18.13;;;4.60;;
8675;SDS011;4375;52.486;13.424;2023-05-02T11:33:55;21.33;;;4.60;;
8675;SDS011;4375;52.486;13.424;2023-05-02T11:36:31;27.00;;;5.93;;
8675;SDS011;4375;52.486;13.424;2023-05-02T11:38:58;20.10;;;4.67;;
8675;SDS011;4375;52.486;13.424;2023-05-02T11:41:40;23.13;;;4.63;;
8675;SDS011;4375;52.486;13.424;2023-05-02T11:44:06;22.50;;;5.10;;
8675;SDS011;4375;52.486;13.424;2023-05-02T11:46:32;21.27;;;4.20;;
8675;SDS011;4375;52.486;13.424;2023-05-02T11:49:01;21.97;;;4.10;;
8675;SDS011;4375;52.486;13.424;2023-05-02T11:51:27;20.93;;;4.07;;
8675;SDS011;4375;52.486;13.424;2023-05-02T11:53:53;19.93;;;4.20;;
8675;SDS011;4375;52.486;13.424;2023-05-02T11:56:22;18.03;;;3.50;;
8675;SDS011;4375;52.486;13.424;2023-05-02T11:58:58;19.30;;;4.43;;
8675;SDS011;4375;52.486;13.424;2023-05-02T12:01:28;19.97;;;4.40;;
8675;SDS011;4375;52.486;13.424;2023-05-02T12:04:06;20.73;;;4.33;;
8675;SDS011;4375;52.486;13.424;2023-05-02T12:06:32;17.50;;;3.20;;
8675;SDS011;4375;52.486;13.424;2023-05-02T12:09:09;22.97;;;3.60;;
8675;SDS011;4375;52.486;13.424;2023-05-02T12:11:41;21.40;;;3.60;;
8675;SDS011;4375;52.486;13.424;2023-05-02T12:14:07;18.37;;;3.37;;
8675;SDS011;4375;52.486;13.424;2023-05-02T12:16:33;18.03;;;3.70;;
8675;SDS011;4375;52.486;13.424;2023-05-02T12:18:59;17.90;;;3.70;;
8675;SDS011;4375;52.486;13.424;2023-05-02T12:21:26;16.83;;;3.23;;
8675;SDS011;4375;52.486;13.424;2023-05-02T12:23:59;16.90;;;3.07;;
8675;SDS011;4375;52.486;13.424;2023-05-02T12:26:26;21.50;;;3.50;;
8675;SDS011;4375;52.486;13.424;2023-05-02T12:28:56;18.27;;;3.33;;
8675;SDS011;4375;52.486;13.424;2023-05-02T12:31:23;19.40;;;3.20;;
8675;SDS011;4375;52.486;13.424;2023-05-02T12:33:49;17.17;;;3.20;;
8675;SDS011;4375;52.486;13.424;2023-05-02T12:36:17;17.97;;;3.20;;
8675;SDS011;4375;52.486;13.424;2023-05-02T12:38:47;19.37;;;4.37;;
8675;SDS011;4375;52.486;13.424;2023-05-02T12:41:17;19.23;;;3.20;;
8675;SDS011;4375;52.486;13.424;2023-05-02T12:43:47;19.37;;;3.90;;
8675;SDS011;4375;52.486;13.424;2023-05-02T12:46:13;23.50;;;3.53;;
8675;SDS011;4375;52.486;13.424;2023-05-02T12:48:39;20.90;;;3.60;;
8675;SDS011;4375;52.486;13.424;2023-05-02T12:51:05;18.50;;;3.47;;
8675;SDS011;4375;52.486;13.424;2023-05-02T12:53:38;20.60;;;4.47;;
8675;SDS011;4375;52.486;13.424;2023-05-02T12:56:05;21.07;;;4.00;;
8675;SDS011;4375;52.486;13.424;2023-05-02T12:58:38;27.47;;;4.40;;
8675;SDS011;4375;52.486;13.424;2023-05-02T13:01:08;22.90;;;4.30;;
8675;SDS011;4375;52.486;13.424;2023-05-02T13:03:35;19.90;;;3.80;;
8675;SDS011;4375;52.486;13.424;2023-05-02T13:06:01;26.00;;;5.00;;
8675;SDS011;4375;52.486;13.424;2023-05-02T13:08:28;19.03;;;4.00;;
8675;SDS011;4375;52.486;13.424;2023-05-02T13:10:53;23.80;;;4.70;;
8675;SDS011;4375;52.486;13.424;2023-05-02T13:13:19;26.83;;;4.80;;
8675;SDS011;4375;52.486;13.424;2023-05-02T13:15:45;22.20;;;5.40;;
8675;SDS011;4375;52.486;13.424;2023-05-02T13:18:11;24.80;;;4.90;;
8675;SDS011;4375;52.486;13.424;2023-05-02T13:20:37;24.33;;;4.27;;
8675;SDS011;4375;52.486;13.424;2023-05-02T13:23:02;24.80;;;4.30;;
8675;SDS011;4375;52.486;13.424;2023-05-02T13:25:28;23.93;;;4.20;;
8675;SDS011;4375;52.486;13.424;2023-05-02T13:27:54;20.13;;;3.93;;
8675;SDS011;4375;52.486;13.424;2023-05-02T13:30:20;21.73;;;4.50;;
8675;SDS011;4375;52.486;13.424;2023-05-02T13:32:46;25.33;;;6.67;;
8675;SDS011;4375;52.486;13.424;2023-05-02T13:35:11;21.93;;;4.60;;
8675;SDS011;4375;52.486;13.424;2023-05-02T13:37:39;19.30;;;3.97;;
8675;SDS011;4375;52.486;13.424;2023-05-02T13:40:06;19.13;;;3.50;;
8675;SDS011;4375;52.486;13.424;2023-05-02T13:42:32;23.63;;;3.80;;
8675;SDS011;4375;52.486;13.424;2023-05-02T13:44:57;17.67;;;2.77;;
8675;SDS011;4375;52.486;13.424;2023-05-02T13:47:23;22.67;;;5.57;;
8675;SDS011;4375;52.486;13.424;2023-05-02T13:49:49;18.90;;;3.20;;
8675;SDS011;4375;52.486;13.424;2023-05-02T13:52:14;18.83;;;3.47;;
8675;SDS011;4375;52.486;13.424;2023-05-02T13:54:40;20.90;;;3.67;;
8675;SDS011;4375;52.486;13.424;2023-05-02T13:57:06;22.10;;;4.30;;
8675;SDS011;4375;52.486;13.424;2023-05-02T13:59:31;20.93;;;3.60;;
8675;SDS011;4375;52.486;13.424;2023-05-02T14:01:57;17.70;;;3.30;;
8675;SDS011;4375;52.486;13.424;2023-05-02T14:04:23;17.37;;;3.60;;
8675;SDS011;4375;52.486;13.424;2023-05-02T14:06:48;20.63;;;4.00;;
8675;SDS011;4375;52.486;13.424;2023-05-02T14:09:14;21.10;;;4.37;;
8675;SDS011;4375;52.486;13.424;2023-05-02T14:11:40;19.70;;;4.30;;
8675;SDS011;4375;52.486;13.424;2023-05-02T14:14:08;19.03;;;3.97;;
8675;SDS011;4375;52.486;13.424;2023-05-02T14:16:36;22.93;;;4.27;;
8675;SDS011;4375;52.486;13.424;2023-05-02T14:19:02;16.90;;;3.87;;
8675;SDS011;4375;52.486;13.424;2023-05-02T14:21:28;26.63;;;4.60;;
8675;SDS011;4375;52.486;13.424;2023-05-02T14:23:53;19.57;;;3.90;;
8675;SDS011;4375;52.486;13.424;2023-05-02T14:26:19;27.13;;;4.77;;
8675;SDS011;4375;52.486;13.424;2023-05-02T14:28:45;21.43;;;4.17;;
8675;SDS011;4375;52.486;13.424;2023-05-02T14:31:11;16.67;;;3.90;;
8675;SDS011;4375;52.486;13.424;2023-05-02T14:33:36;20.60;;;3.90;;
8675;SDS011;4375;52.486;13.424;2023-05-02T14:36:02;21.93;;;4.50;;
8675;SDS011;4375;52.486;13.424;2023-05-02T14:38:28;21.40;;;3.83;;
8675;SDS011;4375;52.486;13.424;2023-05-02T14:40:54;17.73;;;3.60;;
8675;SDS011;4375;52.486;13.424;2023-05-02T14:43:19;16.90;;;4.30;;
8675;SDS011;4375;52.486;13.424;2023-05-02T14:45:45;19.03;;;3.47;;
8675;SDS011;4375;52.486;13.424;2023-05-02T14:48:11;23.40;;;4.20;;
8675;SDS011;4375;52.486;13.424;2023-05-02T14:50:38;19.73;;;3.80;;
8675;SDS011;4375;52.486;13.424;2023-05-02T14:53:04;21.50;;;4.40;;
8675;SDS011;4375;52.486;13.424;2023-05-02T14:55:36;18.50;;;3.60;;
8675;SDS011;4375;52.486;13.424;2023-05-02T14:58:04;20.10;;;3.20;;
8675;SDS011;4375;52.486;13.424;2023-05-02T15:00:32;19.00;;;4.00;;
8675;SDS011;4375;52.486;13.424;2023-05-02T15:02:59;18.77;;;3.37;;
8675;SDS011;4375;52.486;13.424;2023-05-02T15:05:25;19.53;;;3.83;;
8675;SDS011;4375;52.486;13.424;2023-05-02T15:07:51;18.00;;;3.70;;
8675;SDS011;4375;52.486;13.424;2023-05-02T15:10:16;20.37;;;4.27;;
8675;SDS011;4375;52.486;13.424;2023-05-02T15:12:42;18.47;;;4.03;;
8675;SDS011;4375;52.486;13.424;2023-05-02T15:15:10;20.53;;;3.60;;
8675;SDS011;4375;52.486;13.424;2023-05-02T15:17:35;20.50;;;4.10;;
8675;SDS011;4375;52.486;13.424;2023-05-02T15:20:01;16.50;;;3.17;;
8675;SDS011;4375;52.486;13.424;2023-05-02T15:22:28;18.77;;;3.33;;
8675;SDS011;4375;52.486;13.424;2023-05-02T15:24:53;21.30;;;3.67;;
8675;SDS011;4375;52.486;13.424;2023-05-02T15:27:19;18.67;;;3.70;;
8675;SDS011;4375;52.486;13.424;2023-05-02T15:29:45;21.93;;;3.97;;
8675;SDS011;4375;52.486;13.424;2023-05-02T15:32:10;22.90;;;4.07;;
8675;SDS011;4375;52.486;13.424;2023-05-02T15:34:36;18.63;;;3.40;;
8675;SDS011;4375;52.486;13.424;2023-05-02T15:37:02;24.20;;;3.77;;
8675;SDS011;4375;52.486;13.424;2023-05-02T15:39:27;24.00;;;4.43;;
8675;SDS011;4375;52.486;13.424;2023-05-02T15:41:53;20.87;;;4.20;;